createdAt,value
2019-06-08T00:01:16.413Z,18.00
2019-06-08T00:04:20.711Z,18.00
2019-06-08T00:07:24.631Z,17.90
2019-06-08T00:10:28.540Z,17.90
2019-06-08T00:13:32.469Z,17.90
2019-06-08T00:16:36.330Z,17.90
2019-06-08T00:19:40.210Z,17.80
2019-06-08T00:22:44.066Z,17.80
2019-06-08T00:25:47.900Z,17.80
2019-06-08T00:28:51.799Z,17.80
2019-06-08T00:31:55.636Z,17.80
2019-06-08T00:34:59.527Z,17.70
2019-06-08T00:38:03.380Z,17.70
2019-06-08T00:41:07.259Z,17.60
2019-06-08T00:44:11.099Z,17.70
2019-06-08T00:47:16.286Z,17.60
2019-06-08T00:50:20.994Z,17.40
2019-06-08T00:53:25.326Z,17.30
2019-06-08T00:56:30.006Z,17.40
2019-06-08T00:59:34.026Z,17.40
2019-06-08T01:02:37.867Z,17.30
2019-06-08T01:05:41.802Z,17.30
2019-06-08T01:08:45.668Z,17.20
2019-06-08T01:11:49.586Z,17.20
2019-06-08T01:14:53.419Z,17.10
2019-06-08T01:18:02.592Z,17.20
2019-06-08T01:21:02.777Z,17.00
2019-06-08T01:24:06.691Z,17.00
2019-06-08T01:27:10.537Z,17.20
2019-06-08T01:30:14.996Z,17.10
2019-06-08T01:33:18.841Z,17.10
2019-06-08T01:36:22.823Z,17.00
2019-06-08T01:39:27.266Z,17.10
2019-06-08T01:42:31.894Z,17.00
2019-06-08T01:45:35.772Z,17.00
2019-06-08T01:48:39.640Z,17.00
2019-06-08T01:51:43.487Z,16.90
2019-06-08T01:54:47.362Z,17.00
2019-06-08T01:57:51.212Z,16.90
2019-06-08T02:00:55.081Z,16.90
2019-06-08T02:03:58.931Z,16.80
2019-06-08T02:07:02.796Z,16.70
2019-06-08T02:10:08.681Z,16.70
2019-06-08T02:13:12.539Z,16.70
2019-06-08T02:16:16.542Z,16.70
2019-06-08T02:19:20.340Z,16.60
2019-06-08T02:22:24.214Z,16.50
2019-06-08T02:25:29.432Z,16.50
2019-06-08T02:28:33.669Z,16.50
2019-06-08T02:31:37.869Z,16.60
2019-06-08T02:34:41.868Z,16.50
2019-06-08T02:37:45.779Z,16.60
2019-06-08T02:40:49.660Z,16.60
2019-06-08T02:43:53.567Z,16.60
2019-06-08T02:46:57.625Z,16.70
2019-06-08T02:50:01.711Z,16.60
2019-06-08T02:53:06.039Z,16.60
2019-06-08T02:56:12.819Z,16.50
2019-06-08T02:59:18.339Z,16.50
2019-06-08T03:02:23.882Z,16.50
2019-06-08T03:05:29.717Z,16.50
2019-06-08T03:08:36.330Z,16.60
2019-06-08T03:11:41.872Z,16.60
2019-06-08T03:14:47.255Z,16.70
2019-06-08T03:17:51.101Z,16.70
2019-06-08T03:20:55.017Z,16.70
2019-06-08T03:23:59.156Z,16.80
2019-06-08T03:27:03.059Z,16.80
2019-06-08T03:30:17.572Z,16.80
2019-06-08T03:33:13.354Z,16.90
2019-06-08T03:36:17.375Z,16.80
2019-06-08T03:39:21.227Z,16.90
2019-06-08T03:42:25.087Z,16.90
2019-06-08T03:45:28.966Z,17.00
2019-06-08T03:48:34.884Z,17.20
2019-06-08T03:51:41.832Z,17.40
2019-06-08T03:54:45.233Z,17.60
2019-06-08T03:57:50.781Z,17.70
2019-06-08T04:00:54.648Z,17.90
2019-06-08T04:04:00.140Z,18.00
2019-06-08T04:07:04.181Z,18.30
2019-06-08T04:10:08.116Z,18.50
2019-06-08T04:13:12.062Z,18.60
2019-06-08T04:16:15.911Z,18.80
2019-06-08T04:19:19.806Z,19.00
2019-06-08T04:22:23.673Z,19.20
2019-06-08T04:25:27.577Z,19.40
2019-06-08T04:28:31.465Z,19.60
2019-06-08T04:31:35.351Z,19.70
2019-06-08T04:34:40.882Z,19.80
2019-06-08T04:37:46.778Z,19.80
2019-06-08T04:40:50.407Z,19.90
2019-06-08T04:43:54.307Z,20.10
2019-06-08T04:46:58.153Z,20.30
2019-06-08T04:50:20.899Z,20.70
2019-06-08T04:53:07.572Z,21.00
2019-06-08T04:56:11.459Z,22.20
2019-06-08T04:59:15.294Z,23.50
2019-06-08T05:02:19.165Z,25.10
2019-06-08T05:05:23.010Z,26.40
2019-06-08T05:08:26.855Z,27.20
2019-06-08T05:11:30.706Z,27.90
2019-06-08T05:14:34.522Z,28.80
2019-06-08T05:17:39.287Z,29.40
2019-06-08T05:20:45.518Z,29.90
2019-06-08T05:23:57.916Z,30.70
2019-06-08T05:26:54.308Z,31.60
2019-06-08T05:29:58.254Z,31.10
2019-06-08T05:33:02.151Z,31.60
2019-06-08T05:36:06.049Z,32.50
2019-06-08T05:39:10.068Z,32.30
2019-06-08T05:42:13.885Z,33.50
2019-06-08T05:45:17.990Z,34.40
2019-06-08T05:48:21.845Z,35.10
2019-06-08T05:51:25.761Z,36.30
2019-06-08T05:54:29.731Z,35.90
2019-06-08T05:57:33.568Z,36.70
2019-06-08T06:00:37.407Z,37.00
2019-06-08T06:03:42.276Z,36.80
2019-06-08T06:06:46.627Z,37.60
2019-06-08T06:09:51.106Z,38.00
2019-06-08T06:12:55.286Z,38.30
2019-06-08T06:15:59.182Z,38.70
2019-06-08T06:19:03.548Z,39.10
2019-06-08T06:22:07.465Z,39.00
2019-06-08T06:25:12.152Z,39.80
2019-06-08T06:28:16.013Z,40.00
2019-06-08T06:31:19.890Z,40.40
2019-06-08T06:34:23.723Z,40.80
2019-06-08T06:37:27.586Z,41.30
2019-06-08T06:40:31.484Z,41.90
2019-06-08T06:43:35.338Z,41.70
2019-06-08T06:46:39.180Z,42.70
2019-06-08T06:49:44.453Z,43.10
2019-06-08T06:52:48.953Z,42.40
2019-06-08T06:55:53.382Z,43.30
2019-06-08T06:58:57.380Z,43.40
2019-06-08T07:02:01.468Z,44.00
2019-06-08T07:05:07.158Z,43.60
2019-06-08T07:08:10.982Z,43.50
2019-06-08T07:11:15.196Z,44.50
2019-06-08T07:14:19.110Z,44.70
2019-06-08T07:17:23.050Z,45.10
2019-06-08T07:20:26.968Z,44.20
2019-06-08T07:23:30.888Z,43.80
2019-06-08T07:26:34.715Z,44.00
2019-06-08T07:29:38.610Z,45.30
2019-06-08T07:32:42.435Z,46.60
2019-06-08T07:35:47.003Z,46.30
2019-06-08T07:38:51.934Z,45.60
2019-06-08T07:41:56.011Z,46.80
2019-06-08T07:45:00.424Z,47.00
2019-06-08T07:48:04.686Z,46.70
2019-06-08T07:51:08.568Z,45.60
2019-06-08T07:54:12.464Z,46.10
2019-06-08T07:57:16.376Z,45.10
2019-06-08T08:00:20.336Z,45.80
2019-06-08T08:03:24.186Z,44.90
2019-06-08T08:06:30.345Z,41.90
2019-06-08T08:09:33.767Z,40.10
2019-06-08T08:12:37.715Z,37.70
2019-06-08T08:15:41.573Z,36.90
2019-06-08T08:18:45.457Z,36.10
2019-06-08T08:21:51.851Z,35.00
2019-06-08T08:24:57.931Z,35.10
2019-06-08T08:28:01.055Z,35.50
2019-06-08T08:31:05.071Z,34.80
2019-06-08T08:34:09.170Z,34.60
2019-06-08T08:37:13.116Z,34.30
2019-06-08T08:40:17.850Z,34.10
2019-06-08T08:43:23.102Z,33.60
2019-06-08T08:46:28.565Z,33.80
2019-06-08T08:49:33.590Z,33.60
2019-06-08T08:52:40.772Z,33.80
2019-06-08T08:55:43.357Z,33.50
2019-06-08T08:58:47.772Z,33.10
2019-06-08T09:01:52.878Z,32.90
2019-06-08T09:04:59.670Z,33.10
2019-06-08T09:08:03.733Z,32.80
2019-06-08T09:11:08.288Z,32.60
2019-06-08T09:14:14.022Z,32.50
2019-06-08T09:17:18.188Z,32.30
2019-06-08T09:20:22.246Z,32.10
2019-06-08T09:23:27.998Z,32.30
2019-06-08T09:26:31.658Z,32.00
2019-06-08T09:29:35.572Z,31.90
2019-06-08T09:32:39.590Z,31.80
2019-06-08T09:35:43.489Z,31.80
2019-06-08T09:38:47.905Z,31.40
2019-06-08T09:41:53.665Z,31.40
2019-06-08T09:45:00.379Z,31.40
2019-06-08T09:48:05.539Z,31.20
2019-06-08T09:51:09.314Z,31.30
2019-06-08T09:54:13.480Z,31.00
2019-06-08T09:57:18.809Z,30.80
2019-06-08T10:00:26.389Z,31.10
2019-06-08T10:03:30.835Z,31.30
2019-06-08T10:06:34.086Z,31.10
2019-06-08T10:09:38.199Z,31.00
2019-06-08T10:12:42.233Z,30.80
2019-06-08T10:15:48.734Z,30.80
2019-06-08T10:18:51.675Z,30.70
2019-06-08T10:21:56.778Z,30.60
2019-06-08T10:25:04.139Z,30.50
2019-06-08T10:28:11.333Z,30.50
2019-06-08T10:31:11.801Z,30.40
2019-06-08T10:34:15.676Z,30.20
2019-06-08T10:37:19.610Z,30.50
2019-06-08T10:40:23.535Z,30.30
2019-06-08T10:43:28.919Z,30.10
2019-06-08T10:46:32.875Z,29.90
2019-06-08T10:49:38.439Z,29.90
2019-06-08T10:52:42.512Z,29.90
2019-06-08T10:55:48.191Z,30.00
2019-06-08T10:58:51.853Z,29.90
2019-06-08T11:01:55.774Z,30.00
2019-06-08T11:05:04.727Z,29.90
2019-06-08T11:08:12.977Z,30.10
2019-06-08T11:11:12.613Z,30.20
2019-06-08T11:14:18.449Z,30.10
2019-06-08T11:17:22.067Z,30.30
2019-06-08T11:20:27.594Z,30.20
2019-06-08T11:23:31.426Z,30.20
2019-06-08T11:26:40.038Z,30.20
2019-06-08T11:29:41.670Z,30.20
2019-06-08T11:32:47.904Z,30.20
2019-06-08T11:35:51.048Z,30.30
2019-06-08T11:38:55.059Z,30.40
2019-06-08T11:42:00.277Z,30.30
2019-06-08T11:45:11.153Z,30.30
2019-06-08T11:48:14.776Z,30.40
2019-06-08T11:51:18.640Z,30.30
2019-06-08T11:54:36.183Z,29.90
2019-06-08T11:57:28.493Z,29.80
2019-06-08T12:01:01.789Z,29.70
2019-06-08T12:04:09.837Z,29.90
2019-06-08T12:07:14.418Z,29.80
2019-06-08T12:10:18.257Z,29.90
2019-06-08T12:13:22.170Z,29.90
2019-06-08T12:16:28.090Z,30.00
2019-06-08T12:19:31.678Z,30.20
2019-06-08T12:22:37.719Z,30.50
2019-06-08T12:25:41.119Z,30.60
2019-06-08T12:28:45.022Z,30.40
2019-06-08T12:31:54.042Z,30.40
2019-06-08T12:34:59.759Z,30.40
2019-06-08T12:38:03.191Z,30.10
2019-06-08T12:41:09.135Z,30.20
2019-06-08T12:44:15.092Z,30.40
2019-06-08T12:47:25.832Z,30.30
2019-06-08T12:50:23.745Z,30.30
2019-06-08T12:53:28.273Z,30.40
2019-06-08T12:56:32.272Z,30.30
2019-06-08T12:59:38.310Z,30.20
2019-06-08T13:02:41.588Z,30.10
2019-06-08T13:05:45.432Z,30.30
2019-06-08T13:08:49.245Z,30.20
2019-06-08T13:11:55.750Z,30.20
2019-06-08T13:14:58.599Z,30.30
2019-06-08T13:18:02.521Z,30.30
2019-06-08T13:21:16.658Z,30.30
2019-06-08T13:24:13.074Z,30.30
2019-06-08T13:27:21.135Z,30.20
2019-06-08T13:30:25.826Z,30.30
2019-06-08T13:33:28.252Z,30.20
2019-06-08T13:36:32.208Z,30.20
2019-06-08T13:39:38.649Z,30.10
2019-06-08T13:42:41.565Z,30.10
2019-06-08T13:45:45.373Z,30.00
2019-06-08T13:48:49.247Z,30.00
2019-06-08T13:51:53.086Z,29.80
2019-06-08T13:54:58.324Z,29.90
2019-06-08T13:58:02.285Z,29.80
2019-06-08T14:01:08.859Z,29.80
2019-06-08T14:04:11.618Z,29.80
2019-06-08T14:07:18.861Z,29.60
2019-06-08T14:10:24.514Z,29.50
2019-06-08T14:13:34.086Z,29.40
2019-06-08T14:16:34.996Z,29.30
2019-06-08T14:19:38.907Z,29.20
2019-06-08T14:22:42.805Z,29.30
2019-06-08T14:25:53.692Z,29.30
2019-06-08T14:28:52.132Z,29.30
2019-06-08T14:31:57.808Z,29.30
2019-06-08T14:35:02.975Z,29.20
2019-06-08T14:38:07.007Z,29.20
2019-06-08T14:41:10.885Z,29.10
2019-06-08T14:44:14.750Z,28.60
2019-06-08T14:47:18.745Z,28.50
2019-06-08T14:50:22.913Z,28.60
2019-06-08T14:53:26.861Z,28.60
2019-06-08T14:56:31.792Z,28.50
2019-06-08T14:59:35.686Z,28.30
2019-06-08T15:02:39.541Z,28.20
2019-06-08T15:05:43.387Z,28.20
2019-06-08T15:08:50.060Z,28.30
2019-06-08T15:11:52.704Z,28.20
2019-06-08T15:14:58.036Z,28.40
2019-06-08T15:18:04.797Z,28.00
2019-06-08T15:21:07.926Z,27.90
2019-06-08T15:24:11.890Z,27.70
2019-06-08T15:27:20.960Z,27.60
2019-06-08T15:30:21.690Z,27.70
2019-06-08T15:33:26.974Z,27.60
2019-06-08T15:36:32.570Z,27.40
2019-06-08T15:39:38.643Z,27.00
2019-06-08T15:42:42.362Z,26.60
2019-06-08T15:45:51.060Z,26.50
2019-06-08T15:48:51.783Z,26.20
2019-06-08T15:51:57.781Z,26.20
2019-06-08T15:55:01.663Z,26.00
2019-06-08T15:58:05.680Z,25.60
2019-06-08T16:01:09.686Z,25.60
2019-06-08T16:04:13.521Z,25.40
2019-06-08T16:07:17.620Z,25.30
2019-06-08T16:10:21.738Z,25.10
2019-06-08T16:13:26.722Z,25.20
2019-06-08T16:16:31.137Z,25.10
2019-06-08T16:19:35.954Z,25.00
2019-06-08T16:22:39.946Z,24.80
2019-06-08T16:25:43.790Z,24.90
2019-06-08T16:28:47.761Z,24.80
2019-06-08T16:31:51.781Z,24.70
2019-06-08T16:34:55.586Z,24.60
2019-06-08T16:37:59.443Z,24.50
2019-06-08T16:41:03.305Z,24.40
2019-06-08T16:44:07.507Z,24.30
2019-06-08T16:47:11.470Z,24.10
2019-06-08T16:50:24.150Z,24.00
2019-06-08T16:53:21.192Z,23.80
2019-06-08T16:56:25.025Z,23.40
2019-06-08T16:59:30.150Z,23.60
2019-06-08T17:02:34.856Z,23.50
2019-06-08T17:05:39.115Z,23.50
2019-06-08T17:08:43.021Z,23.30
2019-06-08T17:11:46.871Z,23.00
2019-06-08T17:14:50.729Z,22.90
2019-06-08T17:17:54.577Z,22.90
2019-06-08T17:20:58.552Z,22.70
2019-06-08T17:24:02.461Z,22.60
2019-06-08T17:27:06.441Z,22.50
2019-06-08T17:30:10.926Z,22.30
2019-06-08T17:33:14.937Z,22.30
2019-06-08T17:36:18.756Z,22.20
2019-06-08T17:39:22.729Z,22.20
2019-06-08T17:42:26.533Z,22.10
2019-06-08T17:45:30.387Z,22.00
2019-06-08T17:48:34.881Z,21.90
2019-06-08T17:51:39.240Z,21.90
2019-06-08T17:54:43.447Z,21.90
2019-06-08T17:57:53.182Z,21.90
2019-06-08T18:00:52.957Z,21.80
2019-06-08T18:03:57.467Z,21.80
2019-06-08T18:07:01.404Z,21.80
2019-06-08T18:10:07.177Z,21.80
2019-06-08T18:13:11.093Z,21.70
2019-06-08T18:16:17.476Z,21.70
2019-06-08T18:19:29.212Z,21.60
2019-06-08T18:22:34.201Z,21.40
2019-06-08T18:25:40.225Z,21.40
2019-06-08T18:28:44.984Z,21.40
2019-06-08T18:31:49.285Z,21.40
2019-06-08T18:34:53.200Z,21.40
2019-06-08T18:37:57.779Z,21.40
2019-06-08T18:41:01.799Z,21.30
2019-06-08T18:44:07.924Z,21.30
2019-06-08T18:47:11.185Z,21.40
2019-06-08T18:50:17.325Z,21.40
2019-06-08T18:53:21.415Z,21.40
2019-06-08T18:56:27.464Z,21.40
2019-06-08T18:59:30.755Z,21.30
2019-06-08T19:02:34.637Z,21.30
2019-06-08T19:05:42.278Z,21.10
2019-06-08T19:08:45.411Z,21.10
2019-06-08T19:11:50.153Z,21.10
2019-06-08T19:14:54.126Z,21.20
2019-06-08T19:17:58.401Z,21.10
2019-06-08T19:21:02.231Z,21.10
2019-06-08T19:24:09.657Z,21.00
2019-06-08T19:27:11.576Z,20.90
2019-06-08T19:30:15.597Z,20.90
2019-06-08T19:33:21.147Z,20.80
2019-06-08T19:36:24.994Z,20.90
2019-06-08T19:39:28.829Z,20.70
2019-06-08T19:42:40.032Z,20.60
2019-06-08T19:45:40.218Z,20.60
2019-06-08T19:48:44.471Z,20.50
2019-06-08T19:51:53.811Z,20.60
2019-06-08T19:54:55.141Z,20.70
2019-06-08T19:57:59.067Z,20.60
2019-06-08T20:01:02.982Z,20.60
2019-06-08T20:04:07.370Z,20.50
2019-06-08T20:07:11.514Z,20.50
2019-06-08T20:10:17.678Z,20.40
2019-06-08T20:13:21.600Z,20.30
2019-06-08T20:16:27.732Z,20.30
2019-06-08T20:19:31.122Z,20.30
2019-06-08T20:22:37.314Z,20.20
2019-06-08T20:25:41.082Z,20.20
2019-06-08T20:28:46.265Z,20.10
2019-06-08T20:31:52.159Z,20.10
2019-06-08T20:34:59.088Z,20.00
2019-06-08T20:38:03.348Z,20.00
2019-06-08T20:41:07.987Z,20.00
2019-06-08T20:44:12.264Z,20.10
2019-06-08T20:47:17.906Z,20.10
2019-06-08T20:50:24.334Z,19.90
2019-06-08T20:53:28.932Z,19.70
2019-06-08T20:56:37.030Z,19.70
2019-06-08T20:59:39.986Z,19.70
2019-06-08T21:02:45.650Z,19.60
2019-06-08T21:05:51.428Z,19.50
2019-06-08T21:08:57.652Z,19.50
2019-06-08T21:12:01.969Z,19.50
2019-06-08T21:15:07.732Z,19.40
2019-06-08T21:18:11.768Z,19.40
2019-06-08T21:21:17.549Z,19.40
2019-06-08T21:24:21.966Z,19.30
2019-06-08T21:27:27.697Z,19.40
2019-06-08T21:30:32.438Z,19.30
2019-06-08T21:33:37.959Z,19.30
2019-06-08T21:36:41.974Z,19.30
2019-06-08T21:39:50.437Z,19.20
2019-06-08T21:42:53.895Z,19.20
2019-06-08T21:46:00.904Z,19.20
2019-06-08T21:49:02.990Z,19.20
2019-06-08T21:52:07.298Z,19.10
2019-06-08T21:55:11.690Z,19.10
2019-06-08T21:58:17.739Z,19.10
2019-06-08T22:01:21.146Z,19.00
2019-06-08T22:04:27.261Z,19.00
2019-06-08T22:07:30.496Z,18.80
2019-06-08T22:10:34.345Z,18.70
2019-06-08T22:13:38.337Z,18.80
2019-06-08T22:16:42.266Z,18.70
2019-06-08T22:19:47.489Z,18.60
2019-06-08T22:22:51.954Z,18.60
2019-06-08T22:25:59.222Z,18.50
2019-06-08T22:29:03.638Z,18.30
2019-06-08T22:32:07.848Z,18.20
2019-06-08T22:35:11.785Z,18.20
2019-06-08T22:38:17.601Z,17.90
2019-06-08T22:41:21.145Z,17.80
2019-06-08T22:44:25.031Z,17.80
2019-06-08T22:47:28.862Z,17.90
2019-06-08T22:50:32.730Z,17.70
2019-06-08T22:53:38.349Z,17.80
2019-06-08T22:56:42.042Z,17.70
2019-06-08T22:59:47.703Z,17.70
2019-06-08T23:02:51.471Z,17.50
2019-06-08T23:05:59.171Z,17.60
2019-06-08T23:09:02.975Z,17.50
2019-06-08T23:12:09.288Z,17.40
2019-06-08T23:15:12.371Z,17.20
2019-06-08T23:18:17.908Z,17.10
2019-06-08T23:21:21.698Z,17.10
2019-06-08T23:24:27.594Z,17.10
2019-06-08T23:27:31.568Z,16.80
2019-06-08T23:30:35.417Z,16.50
2019-06-08T23:33:39.274Z,16.30
2019-06-08T23:36:57.622Z,16.50
2019-06-08T23:39:48.754Z,16.50
2019-06-08T23:42:52.620Z,16.30
2019-06-08T23:45:58.294Z,16.20
2019-06-08T23:49:03.657Z,16.20
2019-06-08T23:52:10.399Z,16.10
2019-06-08T23:55:13.387Z,16.00
2019-06-08T23:58:17.663Z,15.80
